Waynetown, Indiana
Current Conditions -  °F | °C
As of 2:54 AM on Sunday 26 Oct 2014 (Local Time) from KLAF Reporting Station
Clear Clear  
Wind Chill: 46°   Ceiling: Unl
Heat Index: 49°   Visibility: 10mi
Dew Point: 33°   Wind: 7mph
Humidity: 54%   Direction: 300°WNW
Pressure: 29.99"   Gusts: NA
Location:  40.09°N, 87.06°W
Report Text: KLAF 260654Z AUTO 30006KT 10SM CLR 09/01 A2999 RMK AO2 SLP154 T00940006 TSNO
Loading
Personal Weather Stations






























Interactive Weather Map New forecast layout! Learn more

10-Day Weather Forecast

Advertisements
Track Severe Weather on mobile